createdAt,value
2018-08-09T03:01:02.544Z,8.10
2018-08-09T03:02:02.390Z,10.80
2018-08-09T03:03:02.613Z,11.30
2018-08-09T03:04:03.112Z,10.30
2018-08-09T03:05:03.153Z,10.20
2018-08-09T03:07:03.261Z,10.20
2018-08-09T03:08:04.208Z,9.90
2018-08-09T03:09:04.380Z,10.30
2018-08-09T03:10:03.792Z,10.30
2018-08-09T03:11:03.027Z,9.80
2018-08-09T03:12:02.046Z,9.70
2018-08-09T03:13:02.168Z,9.90
2018-08-09T03:14:02.349Z,9.80
2018-08-09T03:15:02.381Z,10.40
2018-08-09T03:16:02.679Z,9.90
2018-08-09T03:17:02.918Z,10.10
2018-08-09T03:18:03.148Z,10.30
2018-08-09T03:19:03.251Z,10.20
2018-08-09T03:20:03.444Z,10.40
2018-08-09T03:21:03.646Z,10.70
2018-08-09T03:22:03.850Z,10.90
2018-08-09T03:23:04.000Z,9.70
2018-08-09T03:24:04.253Z,10.40
2018-08-09T03:25:04.204Z,10.00
2018-08-09T03:26:04.503Z,10.10
2018-08-09T03:27:04.740Z,10.10
2018-08-09T03:28:04.911Z,10.70
2018-08-09T03:29:05.014Z,10.10
2018-08-09T03:30:05.259Z,10.10
2018-08-09T03:31:05.356Z,10.30
2018-08-09T03:32:05.583Z,10.40
2018-08-09T03:33:05.885Z,10.00
2018-08-09T03:34:06.239Z,10.80
2018-08-09T03:35:06.331Z,10.30
2018-08-09T03:36:06.514Z,10.80
2018-08-09T03:37:06.696Z,10.40
2018-08-09T03:38:06.865Z,11.00
2018-08-09T03:39:07.042Z,11.00
2018-08-09T03:40:07.318Z,10.90
2018-08-09T03:41:07.141Z,11.00
2018-08-09T03:42:07.531Z,11.20
2018-08-09T03:43:07.879Z,11.10
2018-08-09T03:45:08.141Z,11.10
2018-08-09T03:46:08.163Z,11.20
2018-08-09T03:47:08.300Z,11.00
2018-08-09T03:49:08.625Z,10.50
2018-08-09T03:50:08.981Z,11.20
2018-08-09T03:51:09.161Z,10.60
2018-08-09T03:54:09.604Z,10.20
2018-08-09T04:01:10.531Z,10.90
2018-08-09T04:01:18.881Z,11.20
2018-08-09T04:02:18.698Z,10.80
2018-08-09T04:04:34.788Z,10.90
2018-08-09T04:05:48.002Z,10.40
2018-08-09T04:07:51.226Z,11.70
2018-08-09T04:08:49.236Z,11.10
2018-08-09T04:12:04.106Z,11.60
2018-08-09T04:13:06.286Z,10.90
2018-08-09T04:14:13.850Z,11.00
2018-08-09T04:15:07.510Z,11.00
2018-08-09T04:16:08.978Z,10.70
2018-08-09T04:17:06.101Z,10.80
2018-08-09T04:18:06.866Z,10.20
2018-08-09T04:19:10.891Z,10.30
2018-08-09T04:20:05.756Z,10.80
2018-08-09T04:22:14.799Z,11.20
2018-08-09T04:23:04.072Z,9.90
2018-08-09T04:24:04.067Z,11.00
2018-08-09T04:25:04.039Z,11.00
2018-08-09T04:26:25.996Z,9.80
2018-08-09T04:29:21.765Z,10.30
2018-08-09T04:32:44.147Z,11.10
2018-08-09T04:33:44.309Z,10.40
2018-08-09T04:35:44.339Z,11.00
2018-08-09T04:36:45.240Z,11.10
2018-08-09T04:37:45.567Z,10.70
2018-08-09T04:38:46.183Z,11.10
2018-08-09T04:41:51.612Z,11.40
2018-08-09T04:43:54.415Z,11.30
2018-08-09T04:44:50.227Z,11.00
2018-08-09T04:45:52.450Z,11.40
2018-08-09T04:48:19.739Z,10.40
2018-08-09T04:49:53.079Z,10.50
2018-08-09T04:50:54.869Z,10.70
2018-08-09T04:53:31.563Z,10.60
2018-08-09T04:54:41.622Z,10.40
2018-08-09T04:55:34.139Z,11.40
2018-08-09T04:56:32.920Z,10.50
2018-08-09T04:57:32.241Z,10.90
2018-08-09T04:58:34.210Z,11.30
2018-08-09T04:59:32.896Z,11.10
2018-08-09T05:00:33.373Z,10.20
2018-08-09T05:01:34.763Z,10.90
2018-08-09T05:03:33.281Z,10.60
2018-08-09T05:04:33.597Z,10.90
2018-08-09T05:05:34.390Z,11.60
2018-08-09T05:06:37.282Z,11.40
2018-08-09T05:08:35.717Z,11.90
2018-08-09T05:08:57.954Z,11.50
2018-08-09T05:09:34.637Z,11.20
2018-08-09T05:10:35.185Z,11.50
2018-08-09T05:11:34.955Z,11.30
2018-08-09T05:12:35.287Z,11.20
2018-08-09T05:13:35.412Z,11.00
2018-08-09T05:14:35.603Z,11.10
2018-08-09T05:15:35.918Z,11.30
2018-08-09T05:16:35.855Z,11.30
2018-08-09T05:17:36.205Z,10.90
2018-08-09T05:18:36.501Z,10.80
2018-08-09T05:19:36.579Z,10.50
2018-08-09T05:20:36.619Z,11.80
2018-08-09T05:21:36.891Z,11.00
2018-08-09T05:22:37.158Z,10.10
2018-08-09T05:23:37.499Z,10.70
2018-08-09T05:24:37.349Z,11.40
2018-08-09T05:25:37.613Z,9.90
2018-08-09T05:26:37.760Z,10.40
2018-08-09T05:27:38.074Z,10.80
2018-08-09T05:28:38.198Z,10.70
2018-08-09T05:29:38.285Z,11.00
2018-08-09T05:30:38.530Z,11.60
2018-08-09T05:31:38.719Z,11.50
2018-08-09T05:32:38.913Z,11.20
2018-08-09T05:33:39.018Z,11.10
2018-08-09T05:34:39.163Z,10.40
2018-08-09T05:35:39.737Z,10.00
2018-08-09T05:36:40.268Z,10.40
2018-08-09T05:38:40.311Z,10.20
2018-08-09T05:39:55.325Z,10.50
2018-08-09T05:40:40.812Z,10.60
2018-08-09T05:41:45.797Z,10.30
2018-08-09T05:44:44.999Z,9.80
2018-08-09T05:45:45.060Z,10.00
2018-08-09T05:46:45.875Z,10.30
2018-08-09T05:47:45.658Z,10.10
2018-08-09T05:48:44.884Z,10.50
2018-08-09T05:49:44.078Z,9.90
2018-08-09T05:50:43.918Z,9.30
2018-08-09T05:51:43.963Z,9.20
2018-08-09T05:52:44.188Z,9.60
2018-08-09T06:26:55.122Z,10.60
2018-08-09T06:31:19.511Z,9.60
2018-08-09T06:32:17.007Z,10.30
2018-08-09T06:33:20.589Z,11.80
2018-08-09T06:34:17.485Z,11.70
2018-08-09T06:35:19.218Z,11.00
2018-08-09T06:36:18.212Z,11.60
2018-08-09T06:37:19.556Z,11.10
2018-08-09T06:38:18.101Z,10.40
2018-08-09T06:40:16.144Z,11.50
2018-08-09T06:41:16.229Z,11.50
2018-08-09T06:42:15.869Z,11.20
2018-08-09T06:43:18.293Z,11.30
2018-08-09T06:44:16.303Z,11.60
2018-08-09T06:45:16.294Z,11.20
2018-08-09T06:46:20.417Z,10.90
2018-08-09T06:47:17.283Z,11.40
2018-08-09T06:48:18.291Z,12.20
2018-08-09T06:49:16.998Z,10.40
2018-08-09T06:50:18.137Z,11.60
2018-08-09T06:51:17.444Z,10.70
2018-08-09T06:52:31.234Z,9.80
2018-08-09T06:57:12.194Z,9.50
2018-08-09T06:57:51.712Z,8.80
2018-08-09T08:41:05.868Z,8.40
2018-08-09T13:27:09.811Z,11.90
2018-08-09T13:28:09.571Z,6.70
2018-08-09T13:29:09.041Z,7.00
2018-08-09T13:30:09.541Z,9.20
2018-08-09T13:31:09.394Z,11.20
2018-08-09T13:32:09.927Z,8.30
2018-08-09T13:33:11.369Z,7.10
2018-08-09T13:35:10.888Z,8.80
2018-08-09T13:36:11.010Z,9.20
2018-08-09T13:37:10.996Z,8.50
2018-08-09T13:38:10.807Z,7.50
2018-08-09T13:39:11.491Z,7.70
2018-08-09T13:40:11.299Z,7.90
2018-08-09T13:41:11.458Z,10.90
2018-08-09T13:42:11.772Z,7.00
2018-08-09T13:43:11.913Z,9.90
2018-08-09T13:44:13.450Z,6.90
2018-08-09T13:46:14.269Z,11.40
2018-08-09T13:47:13.664Z,9.60
2018-08-09T13:48:12.685Z,9.10
2018-08-09T13:49:13.527Z,9.90
2018-08-09T13:50:13.436Z,10.10
2018-08-09T13:51:13.470Z,6.20
2018-08-09T13:52:13.576Z,7.50
2018-08-09T13:53:13.688Z,10.30
2018-08-09T13:54:14.987Z,8.40
2018-08-09T13:55:13.513Z,8.20
2018-08-09T13:56:14.239Z,7.10
2018-08-09T13:57:13.995Z,8.90
2018-08-09T13:58:14.805Z,6.40
2018-08-09T13:59:15.009Z,8.40
2018-08-09T14:00:15.352Z,8.10
2018-08-09T14:01:15.334Z,8.40
2018-08-09T14:02:15.505Z,6.70
2018-08-09T14:03:15.447Z,8.00
2018-08-09T14:04:15.685Z,8.60
2018-08-09T14:05:16.525Z,8.20
2018-08-09T14:06:13.940Z,9.50
2018-08-09T14:07:13.664Z,9.10
2018-08-09T14:08:13.804Z,7.70
2018-08-09T14:09:14.063Z,8.30
2018-08-09T14:10:14.678Z,7.80
2018-08-09T14:11:14.317Z,8.50
2018-08-09T14:12:14.512Z,6.80
2018-08-09T14:13:14.661Z,10.80
2018-08-09T14:14:14.859Z,8.60
2018-08-09T14:15:15.083Z,8.90
2018-08-09T14:16:15.174Z,7.50
2018-08-09T14:17:15.289Z,6.30
2018-08-09T14:18:15.660Z,8.20
2018-08-09T14:19:15.688Z,8.70
2018-08-09T14:20:15.969Z,10.90
2018-08-09T14:21:16.113Z,8.80
2018-08-09T14:22:16.254Z,6.60
2018-08-09T14:23:16.474Z,6.80
2018-08-09T14:24:16.562Z,7.30
2018-08-09T14:25:16.755Z,9.50
2018-08-09T14:26:16.950Z,6.40
2018-08-09T14:27:17.344Z,11.30
2018-08-09T14:28:17.294Z,9.60
2018-08-09T14:29:17.411Z,6.80
2018-08-09T14:30:17.668Z,8.10
2018-08-09T14:31:17.751Z,9.10
2018-08-09T14:32:18.081Z,9.50
2018-08-09T14:33:18.121Z,10.90
2018-08-09T14:34:18.363Z,8.20
2018-08-09T14:35:18.488Z,9.10
2018-08-09T14:36:18.695Z,8.10
2018-08-09T14:37:18.763Z,9.10
2018-08-09T14:38:19.104Z,8.90
2018-08-09T14:39:19.168Z,6.50
2018-08-09T14:40:19.323Z,12.00
2018-08-09T14:41:19.482Z,8.30
2018-08-09T14:42:19.775Z,6.00
2018-08-09T14:43:19.899Z,9.20
2018-08-09T14:44:19.978Z,6.10
2018-08-09T14:45:20.235Z,7.40
2018-08-09T14:46:20.412Z,5.90
2018-08-09T14:47:20.565Z,8.40
2018-08-09T14:48:20.689Z,7.20
2018-08-09T14:49:20.893Z,8.80
2018-08-09T14:50:21.069Z,6.10
2018-08-09T14:51:21.261Z,8.20
2018-08-09T14:52:21.588Z,8.90
2018-08-09T14:53:21.630Z,8.20
2018-08-09T14:54:21.947Z,7.10
2018-08-09T14:55:22.045Z,10.30
2018-08-09T14:56:22.467Z,8.10
2018-08-09T14:57:22.479Z,17.50
2018-08-09T14:58:22.533Z,18.40
2018-08-09T14:59:23.361Z,13.60
2018-08-09T15:00:23.216Z,13.50
2018-08-09T15:01:23.797Z,13.00
2018-08-09T15:02:23.313Z,11.80
2018-08-09T15:03:23.544Z,8.60
2018-08-09T15:04:23.717Z,14.10
2018-08-09T15:05:24.172Z,9.40
2018-08-09T15:06:24.283Z,11.30
2018-08-09T15:07:24.362Z,14.00
2018-08-09T15:08:24.406Z,8.60
2018-08-09T15:09:24.712Z,7.90
2018-08-09T15:10:24.857Z,12.20
2018-08-09T15:11:25.028Z,9.70
2018-08-09T15:12:25.172Z,7.70
2018-08-09T15:13:25.395Z,7.20
2018-08-09T15:14:25.408Z,6.20
2018-08-09T15:15:26.345Z,8.10
2018-08-09T15:16:25.772Z,8.90
2018-08-09T15:17:25.991Z,5.20
2018-08-09T15:18:26.349Z,6.30
2018-08-09T15:19:26.315Z,4.20
2018-08-09T15:20:27.334Z,5.50
2018-08-09T15:21:26.628Z,6.20
2018-08-09T15:22:26.833Z,6.80
2018-08-09T15:23:27.089Z,6.80
2018-08-09T15:24:27.263Z,6.40
2018-08-09T15:25:27.418Z,5.30
2018-08-09T15:26:27.589Z,6.30
2018-08-09T15:27:27.873Z,4.90
2018-08-09T15:28:28.068Z,7.70
2018-08-09T15:29:27.978Z,7.70
2018-08-09T15:30:28.264Z,5.10
2018-08-09T15:31:28.792Z,3.50
2018-08-09T15:32:28.744Z,6.30
2018-08-09T15:33:28.853Z,6.50
2018-08-09T15:34:29.056Z,7.70
2018-08-09T15:35:29.166Z,5.30
2018-08-09T15:36:29.554Z,7.10
2018-08-09T15:37:29.444Z,5.30
2018-08-09T15:38:29.647Z,5.80
2018-08-09T15:39:29.844Z,7.20
2018-08-09T15:40:30.051Z,6.60
2018-08-09T15:41:30.264Z,5.90
2018-08-09T15:42:30.454Z,5.80
2018-08-09T15:43:30.629Z,4.50
2018-08-09T15:44:30.903Z,5.10
2018-08-09T15:45:31.054Z,5.60
2018-08-09T15:46:31.179Z,4.60
2018-08-09T15:47:31.564Z,5.40
2018-08-09T15:48:31.575Z,5.30
2018-08-09T15:49:31.651Z,6.70
2018-08-09T15:50:31.854Z,5.50
2018-08-09T15:51:31.924Z,5.80
2018-08-09T15:52:32.397Z,5.70
2018-08-09T15:53:32.332Z,7.80
2018-08-09T15:54:32.622Z,7.40
2018-08-09T15:55:32.737Z,6.10
2018-08-09T15:56:32.878Z,8.00
2018-08-09T15:57:33.061Z,6.80
2018-08-09T15:58:33.248Z,6.70
2018-08-09T15:59:33.620Z,6.20
2018-08-09T16:00:33.680Z,4.90
2018-08-09T16:01:34.700Z,8.00
2018-08-09T16:02:34.269Z,5.00
2018-08-09T16:03:34.391Z,6.20
2018-08-09T16:04:34.600Z,6.30
2018-08-09T16:05:34.836Z,9.00
2018-08-09T16:06:35.548Z,6.60
2018-08-09T16:07:35.219Z,6.30
2018-08-09T16:08:35.241Z,6.00
2018-08-09T16:09:35.351Z,5.30
2018-08-09T16:10:35.616Z,6.50
2018-08-09T16:11:35.985Z,5.40
2018-08-09T16:13:36.355Z,6.60
2018-08-09T16:14:36.247Z,5.70
2018-08-09T16:15:36.491Z,4.60
2018-08-09T16:16:36.756Z,5.70
2018-08-09T16:17:36.856Z,5.30
2018-08-09T16:18:37.048Z,5.60
2018-08-09T16:19:37.285Z,4.60
2018-08-09T16:20:37.431Z,4.80
2018-08-09T16:21:37.560Z,5.50
2018-08-09T16:22:37.820Z,5.20
2018-08-09T16:23:37.931Z,4.10
2018-08-09T16:24:38.134Z,5.90
2018-08-09T16:25:38.306Z,4.90
2018-08-09T16:26:38.439Z,4.70
2018-08-09T16:27:38.643Z,4.70
2018-08-09T16:28:38.763Z,4.70
2018-08-09T16:29:39.078Z,4.90
2018-08-09T16:30:39.100Z,4.90
2018-08-09T16:31:39.267Z,4.40
2018-08-09T16:32:39.455Z,5.00
2018-08-09T16:33:39.675Z,4.10
2018-08-09T16:34:39.828Z,5.00
2018-08-09T16:35:40.177Z,5.80
2018-08-09T16:36:40.231Z,5.50
2018-08-09T16:37:40.432Z,4.90
2018-08-09T16:38:40.549Z,2.90
2018-08-09T16:39:40.817Z,5.50
2018-08-09T16:40:40.941Z,7.20
2018-08-09T16:41:41.109Z,5.30
2018-08-09T16:42:41.438Z,4.40
2018-08-09T16:43:41.488Z,4.10
2018-08-09T16:44:41.721Z,6.00
2018-08-09T16:45:41.888Z,3.60
2018-08-09T16:46:42.157Z,4.00
2018-08-09T16:47:42.204Z,5.00
2018-08-09T16:48:42.524Z,5.10
2018-08-09T16:49:42.704Z,3.80
2018-08-09T16:50:42.819Z,5.00
2018-08-09T16:51:43.094Z,4.80
2018-08-09T16:52:43.343Z,6.10
2018-08-09T16:53:43.338Z,8.30
2018-08-09T16:54:43.589Z,4.60
2018-08-09T16:55:43.790Z,6.10
2018-08-09T16:56:44.184Z,4.30
2018-08-09T16:57:44.098Z,7.00
2018-08-09T16:58:44.271Z,3.90
2018-08-09T16:59:44.659Z,6.00
2018-08-09T17:00:44.493Z,4.00
2018-08-09T17:01:44.828Z,4.60
2018-08-09T17:02:45.100Z,5.10
2018-08-09T17:03:45.129Z,5.50
2018-08-09T17:04:45.353Z,4.10
2018-08-09T17:05:45.468Z,4.50
2018-08-09T17:06:45.685Z,3.40
2018-08-09T17:07:45.884Z,4.10
2018-08-09T17:08:46.007Z,5.10
2018-08-09T17:09:46.129Z,6.30
2018-08-09T17:10:46.385Z,4.20
2018-08-09T17:11:46.455Z,4.20
2018-08-09T17:12:46.900Z,3.70
2018-08-09T17:14:47.132Z,5.60
2018-08-09T17:15:47.292Z,7.20
2018-08-09T17:16:47.541Z,5.60
2018-08-09T17:17:47.675Z,4.20
2018-08-09T17:18:47.903Z,4.70
2018-08-09T17:19:48.154Z,4.20
2018-08-09T17:20:48.445Z,4.90
2018-08-09T17:21:48.632Z,5.00
2018-08-09T17:22:48.672Z,4.90
2018-08-09T17:23:48.849Z,5.80
2018-08-09T17:24:49.209Z,4.90
2018-08-09T17:25:49.093Z,5.70
2018-08-09T17:26:49.319Z,3.90
2018-08-09T17:27:49.530Z,5.60
2018-08-09T17:28:49.671Z,3.60
2018-08-09T17:29:50.096Z,4.90
2018-08-09T17:30:49.990Z,6.80
2018-08-09T17:31:50.275Z,4.30
2018-08-09T17:32:50.577Z,6.00
2018-08-09T17:33:50.581Z,5.30
2018-08-09T17:34:50.812Z,4.80
2018-08-09T17:35:50.974Z,4.90
2018-08-09T17:38:46.590Z,3.90
2018-08-09T17:39:47.509Z,5.60
2018-08-09T17:40:56.071Z,5.00
2018-08-09T17:41:47.436Z,4.80
2018-08-09T17:42:47.429Z,4.20
2018-08-09T17:43:47.499Z,6.20
2018-08-09T17:44:48.204Z,3.60
2018-08-09T17:45:47.999Z,4.20
2018-08-09T17:46:48.182Z,4.20
2018-08-09T17:47:47.476Z,4.40
2018-08-09T17:48:46.181Z,5.60
2018-08-09T17:49:46.288Z,5.50
2018-08-09T17:50:46.559Z,3.60
2018-08-09T17:51:46.675Z,3.40
2018-08-09T17:52:46.914Z,9.00
2018-08-09T17:53:46.974Z,5.20
2018-08-09T17:54:47.244Z,4.60
2018-08-09T17:55:47.360Z,4.90
2018-08-09T17:56:47.498Z,3.10
2018-08-09T17:57:47.687Z,6.30
2018-08-09T17:58:47.954Z,4.50
2018-08-09T17:59:48.118Z,4.00
2018-08-09T18:00:48.427Z,4.10
2018-08-09T18:01:48.499Z,4.00
2018-08-09T18:02:48.869Z,4.20
2018-08-09T18:03:48.863Z,4.00
2018-08-09T18:04:48.991Z,5.50
2018-08-09T18:05:49.231Z,5.00
2018-08-09T18:06:49.418Z,4.60
2018-08-09T18:07:49.572Z,4.40
2018-08-09T18:08:49.756Z,5.30
2018-08-09T18:09:49.900Z,4.10
2018-08-09T18:10:50.054Z,4.40
2018-08-09T18:11:50.139Z,3.40
2018-08-09T18:12:50.430Z,3.90
2018-08-09T18:13:50.627Z,4.60
2018-08-09T18:14:50.728Z,3.50
2018-08-09T18:15:50.902Z,4.20
2018-08-09T18:16:51.261Z,4.70
2018-08-09T18:17:51.515Z,4.10
2018-08-09T18:18:51.699Z,4.20
2018-08-09T18:19:51.762Z,3.30
2018-08-09T18:20:51.871Z,4.70
2018-08-09T18:21:52.150Z,4.20
2018-08-09T18:22:52.209Z,5.10
2018-08-09T18:23:52.438Z,5.70
2018-08-09T18:24:52.596Z,3.60
2018-08-09T18:25:52.746Z,3.70
2018-08-09T18:26:52.829Z,3.80
2018-08-09T18:27:53.077Z,3.00
2018-08-09T18:28:53.171Z,3.40
2018-08-09T18:29:53.471Z,5.50
2018-08-09T18:30:53.628Z,2.50
2018-08-09T18:31:53.821Z,3.00
2018-08-09T18:32:54.060Z,4.00
2018-08-09T18:33:54.171Z,3.40
2018-08-09T18:34:54.350Z,3.60
2018-08-09T18:35:54.386Z,3.90
2018-08-09T18:36:54.695Z,3.70
2018-08-09T18:37:54.802Z,4.10
2018-08-09T18:38:54.980Z,5.40
2018-08-09T18:39:55.254Z,3.20
2018-08-09T18:40:55.390Z,3.60
2018-08-09T18:41:55.745Z,4.40
2018-08-09T18:42:55.852Z,3.70
2018-08-09T18:43:55.903Z,3.50
2018-08-09T18:44:56.182Z,3.20
2018-08-09T18:45:56.338Z,3.70
2018-08-09T18:46:56.761Z,4.80
2018-08-09T18:47:57.238Z,4.10
2018-08-09T18:48:57.040Z,2.60
2018-08-09T18:49:57.208Z,4.00
2018-08-09T18:50:57.563Z,4.20
2018-08-09T18:51:57.569Z,3.50
2018-08-09T18:54:58.300Z,4.00
2018-08-09T18:55:58.343Z,3.90
2018-08-09T18:56:58.710Z,4.00
2018-08-09T19:01:29.664Z,3.60
2018-08-09T19:06:31.327Z,3.60
2018-08-09T19:07:30.174Z,4.10
2018-08-09T19:15:03.529Z,3.50
2018-08-09T19:16:46.613Z,4.20
2018-08-09T19:18:42.647Z,4.20
2018-08-09T19:40:07.537Z,5.10
2018-08-09T19:41:15.609Z,4.20
2018-08-09T19:43:18.078Z,5.10
2018-08-09T19:58:46.857Z,6.50
2018-08-09T20:24:15.317Z,5.10
2018-08-09T20:46:23.675Z,3.60
2018-08-09T21:01:42.380Z,5.00
2018-08-09T21:16:40.526Z,3.30
2018-08-09T21:17:37.130Z,3.50
2018-08-09T21:18:37.219Z,3.20
2018-08-09T21:19:37.836Z,5.20
2018-08-09T21:20:37.813Z,4.90
2018-08-09T21:21:37.820Z,3.90
2018-08-09T21:22:37.971Z,3.70
2018-08-09T21:23:38.193Z,4.00
2018-08-09T21:24:38.393Z,4.60
2018-08-09T21:25:38.534Z,4.30
2018-08-09T21:26:38.803Z,4.50
2018-08-09T21:27:38.893Z,5.40
2018-08-09T21:28:39.063Z,3.60
2018-08-09T21:29:39.239Z,3.80
2018-08-09T21:30:39.420Z,3.30
2018-08-09T21:31:39.549Z,3.70
2018-08-09T21:32:39.775Z,4.50
2018-08-09T21:33:39.910Z,3.50
2018-08-09T21:34:40.039Z,3.60
2018-08-09T21:35:40.154Z,3.70
2018-08-09T21:36:40.413Z,3.70
2018-08-09T21:37:40.489Z,2.90
2018-08-09T21:38:40.696Z,3.30
2018-08-09T21:39:40.903Z,3.60
2018-08-09T21:40:41.057Z,4.70
2018-08-09T21:41:41.189Z,4.60
2018-08-09T21:42:41.373Z,4.30
2018-08-09T21:43:41.582Z,3.40
2018-08-09T21:44:41.733Z,2.80
2018-08-09T21:45:41.919Z,2.90
2018-08-09T21:46:42.049Z,3.40
2018-08-09T21:47:42.236Z,2.80
2018-08-09T21:48:42.449Z,3.30
2018-08-09T21:49:42.822Z,2.60
